createdAt,value
2022-08-10T00:01:15.696Z,59.54
2022-08-10T00:03:42.633Z,59.27
2022-08-10T00:06:09.546Z,59.66
2022-08-10T00:08:37.033Z,59.22
2022-08-10T00:11:04.090Z,59.57
2022-08-10T00:13:31.223Z,59.47
2022-08-10T00:15:58.027Z,59.06
2022-08-10T00:18:34.966Z,59.16
2022-08-10T00:21:08.682Z,59.23
2022-08-10T00:23:36.880Z,59.05
2022-08-10T00:26:04.657Z,59.50
2022-08-10T00:28:31.729Z,59.39
2022-08-10T00:30:58.709Z,59.41
2022-08-10T00:33:25.795Z,59.16
2022-08-10T00:35:52.706Z,59.21
2022-08-10T00:38:19.573Z,59.21
2022-08-10T00:40:46.503Z,59.27
2022-08-10T00:43:13.662Z,59.08
2022-08-10T00:45:40.666Z,59.49
2022-08-10T00:48:07.654Z,59.66
2022-08-10T00:50:34.724Z,59.22
2022-08-10T00:53:01.943Z,59.41
2022-08-10T00:55:29.026Z,59.46
2022-08-10T00:57:56.693Z,59.57
2022-08-10T01:00:24.714Z,59.49
2022-08-10T01:02:52.335Z,59.56
2022-08-10T01:05:23.199Z,59.54
2022-08-10T01:08:16.799Z,59.56
2022-08-10T01:12:37.548Z,59.57
2022-08-10T01:14:09.751Z,59.80
2022-08-10T01:17:10.593Z,59.82
2022-08-10T01:20:03.090Z,59.87
2022-08-10T01:22:42.750Z,59.46
2022-08-10T01:25:29.666Z,59.55
2022-08-10T01:28:19.481Z,59.54
2022-08-10T01:30:48.105Z,59.37
2022-08-10T01:33:29.915Z,59.29
2022-08-10T01:36:14.671Z,59.64
2022-08-10T01:38:46.170Z,59.74
2022-08-10T01:41:21.783Z,59.70
2022-08-10T01:44:03.534Z,59.67
2022-08-10T01:46:32.924Z,59.33
2022-08-10T01:49:02.841Z,59.66
2022-08-10T01:51:52.857Z,59.57
2022-08-10T01:54:21.497Z,59.24
2022-08-10T01:56:52.662Z,59.58
2022-08-10T01:59:24.439Z,59.55
2022-08-10T02:01:58.509Z,59.27
2022-08-10T02:04:28.035Z,59.69
2022-08-10T02:06:56.194Z,59.80
2022-08-10T02:09:29.430Z,59.49
2022-08-10T02:12:07.616Z,59.65
2022-08-10T02:15:07.937Z,59.49
2022-08-10T02:18:00.967Z,59.29
2022-08-10T02:20:35.663Z,59.35
2022-08-10T02:23:09.987Z,59.50
2022-08-10T02:25:43.186Z,59.45
2022-08-10T02:28:29.869Z,59.47
2022-08-10T02:31:23.101Z,59.82
2022-08-10T02:33:57.691Z,59.69
2022-08-10T02:36:33.092Z,59.85
2022-08-10T02:39:05.080Z,59.53
2022-08-10T02:45:02.254Z,59.67
2022-08-10T02:45:27.427Z,59.71
2022-08-10T02:48:00.477Z,59.79
2022-08-10T02:50:36.916Z,59.56
2022-08-10T02:53:54.654Z,59.90
2022-08-10T02:56:15.178Z,59.91
2022-08-10T02:58:46.262Z,59.50
2022-08-10T03:01:18.214Z,59.72
2022-08-10T03:03:53.214Z,59.79
2022-08-10T03:06:23.819Z,59.70
2022-08-10T03:08:52.166Z,59.58
2022-08-10T03:12:35.083Z,59.77
2022-08-10T03:14:20.219Z,59.86
2022-08-10T03:16:47.945Z,59.90
2022-08-10T03:20:33.958Z,59.85
2022-08-10T03:22:04.738Z,59.83
2022-08-10T03:24:34.078Z,60.03
2022-08-10T03:27:01.777Z,59.94
2022-08-10T03:29:30.775Z,59.87
2022-08-10T03:32:19.410Z,59.90
2022-08-10T03:34:46.980Z,60.10
2022-08-10T03:37:13.864Z,60.09
2022-08-10T03:39:40.879Z,60.14
2022-08-10T03:42:13.097Z,60.00
2022-08-10T03:44:43.045Z,59.92
2022-08-10T03:47:16.274Z,60.03
2022-08-10T03:49:45.292Z,60.34
2022-08-10T03:52:12.520Z,60.27
2022-08-10T03:54:41.104Z,60.08
2022-08-10T03:57:08.199Z,60.22
2022-08-10T03:59:36.795Z,60.03
2022-08-10T04:02:46.823Z,60.11
2022-08-10T04:04:53.563Z,60.07
2022-08-10T04:07:21.286Z,60.20
2022-08-10T04:09:54.553Z,60.45
2022-08-10T04:12:23.589Z,60.37
2022-08-10T04:14:52.902Z,60.03
2022-08-10T04:18:00.261Z,60.25
2022-08-10T04:20:25.588Z,60.02
2022-08-10T04:23:00.417Z,59.65
2022-08-10T04:25:28.061Z,59.88
2022-08-10T04:27:55.558Z,59.98
2022-08-10T04:30:24.028Z,59.75
2022-08-10T04:32:55.846Z,59.89
2022-08-10T04:35:26.515Z,60.18
2022-08-10T04:37:56.008Z,60.28
2022-08-10T04:40:28.750Z,59.98
2022-08-10T04:43:01.363Z,60.30
2022-08-10T04:45:47.736Z,60.41
2022-08-10T04:48:43.065Z,60.26
2022-08-10T04:51:16.926Z,60.23
2022-08-10T04:54:02.774Z,60.14
2022-08-10T04:56:32.711Z,58.85
2022-08-10T04:59:00.700Z,57.17
2022-08-10T05:02:21.508Z,56.30
2022-08-10T05:04:37.517Z,56.14
2022-08-10T05:07:01.805Z,56.88
2022-08-10T05:09:28.634Z,57.32
2022-08-10T05:11:55.452Z,57.42
2022-08-10T05:14:22.285Z,57.35
2022-08-10T05:16:49.063Z,57.56
2022-08-10T05:19:15.920Z,57.73
2022-08-10T05:22:02.255Z,57.60
2022-08-10T05:24:29.533Z,57.74
2022-08-10T05:27:09.460Z,57.08
2022-08-10T05:29:37.986Z,56.08
2022-08-10T05:32:05.283Z,55.38
2022-08-10T05:34:32.265Z,55.57
2022-08-10T05:37:00.411Z,55.72
2022-08-10T05:39:31.995Z,55.95
2022-08-10T05:42:01.498Z,56.79
2022-08-10T05:44:29.539Z,57.37
2022-08-10T05:46:56.671Z,57.85
2022-08-10T05:49:23.539Z,58.05
2022-08-10T05:51:50.611Z,58.07
2022-08-10T05:54:17.683Z,58.43
2022-08-10T05:56:53.298Z,58.49
2022-08-10T06:00:29.333Z,58.33
2022-08-10T06:02:30.841Z,58.65
2022-08-10T06:05:05.978Z,58.76
2022-08-10T06:07:35.290Z,58.63
2022-08-10T06:10:02.949Z,59.85
2022-08-10T06:12:55.663Z,61.43
2022-08-10T06:15:51.559Z,61.77
2022-08-10T06:18:17.015Z,61.50
2022-08-10T06:20:46.502Z,61.58
2022-08-10T06:23:14.634Z,60.65
2022-08-10T06:26:08.662Z,59.17
2022-08-10T06:28:31.883Z,58.38
2022-08-10T06:31:02.005Z,58.31
2022-08-10T06:33:31.987Z,58.69
2022-08-10T06:36:00.836Z,58.75
2022-08-10T06:38:32.269Z,58.93
2022-08-10T06:41:05.021Z,59.50
2022-08-10T06:43:34.315Z,59.94
2022-08-10T06:46:08.610Z,59.73
2022-08-10T06:48:47.386Z,60.01
2022-08-10T06:51:18.395Z,60.88
2022-08-10T06:53:52.197Z,61.61
2022-08-10T06:56:35.743Z,61.21
2022-08-10T06:59:13.346Z,61.21
2022-08-10T07:01:54.001Z,61.31
2022-08-10T07:04:45.017Z,61.48
2022-08-10T07:07:18.542Z,61.55
2022-08-10T07:09:46.302Z,61.21
2022-08-10T07:12:15.085Z,61.57
2022-08-10T07:14:45.285Z,61.83
2022-08-10T07:17:15.575Z,61.77
2022-08-10T07:19:49.647Z,61.76
2022-08-10T07:23:01.307Z,61.79
2022-08-10T07:25:08.057Z,61.53
2022-08-10T07:27:58.391Z,61.41
2022-08-10T07:30:24.574Z,61.25
2022-08-10T07:32:52.865Z,61.10
2022-08-10T07:35:21.928Z,60.79
2022-08-10T07:37:51.594Z,61.12
2022-08-10T07:40:21.131Z,60.99
2022-08-10T07:42:51.413Z,60.61
2022-08-10T07:45:18.640Z,60.56
2022-08-10T07:47:54.719Z,60.75
2022-08-10T07:50:24.828Z,60.46
2022-08-10T07:52:55.776Z,60.61
2022-08-10T07:56:04.108Z,60.92
2022-08-10T07:58:12.174Z,60.83
2022-08-10T08:00:41.144Z,60.65
2022-08-10T08:03:09.787Z,60.86
2022-08-10T08:05:59.415Z,60.60
2022-08-10T08:08:28.313Z,60.51
2022-08-10T08:10:58.376Z,60.47
2022-08-10T08:13:26.846Z,60.62
2022-08-10T08:16:20.612Z,60.10
2022-08-10T08:18:58.219Z,60.16
2022-08-10T08:24:09.315Z,59.91
2022-08-10T08:24:31.530Z,60.05
2022-08-10T08:27:00.586Z,59.42
2022-08-10T08:29:28.788Z,59.81
2022-08-10T08:32:01.930Z,59.93
2022-08-10T08:34:33.056Z,60.03
2022-08-10T08:37:01.501Z,59.91
2022-08-10T08:39:30.136Z,59.94
2022-08-10T08:42:09.871Z,59.92
2022-08-10T08:44:48.831Z,59.72
2022-08-10T08:48:03.767Z,59.68
2022-08-10T08:50:50.936Z,59.51
2022-08-10T08:54:01.741Z,59.28
2022-08-10T08:57:02.410Z,59.35
2022-08-10T08:59:48.060Z,58.89
2022-08-10T09:02:27.240Z,58.99
2022-08-10T09:05:14.177Z,58.86
2022-08-10T09:08:03.110Z,58.70
2022-08-10T09:11:02.242Z,58.63
2022-08-10T09:13:40.004Z,58.59
2022-08-10T09:16:30.218Z,58.89
2022-08-10T09:19:34.722Z,58.54
2022-08-10T09:22:19.106Z,58.58
2022-08-10T09:24:56.921Z,58.58
2022-08-10T09:27:49.604Z,58.86
2022-08-10T09:30:28.376Z,58.76
2022-08-10T09:36:25.755Z,58.17
2022-08-10T09:36:32.289Z,58.27
2022-08-10T09:39:12.325Z,58.29
2022-08-10T09:41:59.281Z,58.33
2022-08-10T09:44:31.870Z,58.32
2022-08-10T09:47:01.804Z,58.42
2022-08-10T09:50:04.712Z,58.34
2022-08-10T09:52:41.055Z,58.44
2022-08-10T09:56:19.143Z,58.24
2022-08-10T09:58:50.397Z,58.12
2022-08-10T10:02:02.814Z,58.28
2022-08-10T10:05:02.627Z,58.02
2022-08-10T10:07:31.017Z,58.07
2022-08-10T10:10:08.101Z,58.21
2022-08-10T10:13:07.721Z,57.72
2022-08-10T10:16:12.109Z,57.78
2022-08-10T10:18:48.336Z,57.92
2022-08-10T10:21:54.980Z,57.48
2022-08-10T10:24:35.118Z,57.64
2022-08-10T10:27:19.631Z,57.34
2022-08-10T10:29:59.549Z,57.09
2022-08-10T10:32:36.739Z,57.37
2022-08-10T10:35:16.695Z,57.30
2022-08-10T10:38:02.925Z,57.55
2022-08-10T10:41:07.465Z,57.79
2022-08-10T10:44:05.608Z,57.64
2022-08-10T10:46:51.661Z,57.86
2022-08-10T10:49:32.480Z,57.62
2022-08-10T10:52:21.542Z,57.85
2022-08-10T10:55:05.317Z,57.31
2022-08-10T10:57:58.585Z,57.29
2022-08-10T11:00:49.910Z,57.55
2022-08-10T11:03:47.982Z,57.38
2022-08-10T11:06:45.929Z,56.32
2022-08-10T11:10:05.263Z,56.62
2022-08-10T11:12:37.744Z,56.18
2022-08-10T11:15:23.281Z,55.87
2022-08-10T11:17:56.808Z,55.66
2022-08-10T11:20:33.592Z,55.78
2022-08-10T11:23:10.070Z,55.58
2022-08-10T11:25:41.921Z,55.71
2022-08-10T11:28:37.089Z,55.42
2022-08-10T11:31:16.275Z,55.75
2022-08-10T11:34:48.720Z,55.42
2022-08-10T11:37:00.496Z,55.37
2022-08-10T11:39:37.370Z,55.40
2022-08-10T11:42:31.671Z,55.56
2022-08-10T11:45:17.842Z,55.70
2022-08-10T11:47:57.405Z,55.46
2022-08-10T11:50:34.476Z,55.43
2022-08-10T11:53:27.234Z,55.26
2022-08-10T11:56:09.841Z,55.24
2022-08-10T11:59:01.915Z,55.63
2022-08-10T12:01:47.733Z,55.26
2022-08-10T12:04:16.544Z,55.32
2022-08-10T12:06:55.989Z,54.84
2022-08-10T12:10:09.931Z,54.48
2022-08-10T12:12:13.971Z,55.26
2022-08-10T12:14:55.472Z,55.37
2022-08-10T12:17:50.123Z,55.51
2022-08-10T12:20:29.303Z,55.45
2022-08-10T12:23:08.187Z,55.20
2022-08-10T12:25:55.875Z,55.16
2022-08-10T12:28:52.190Z,55.70
2022-08-10T12:34:02.257Z,55.45
2022-08-10T12:36:38.934Z,55.57
2022-08-10T12:39:28.135Z,55.46
2022-08-10T12:42:07.816Z,54.86
2022-08-10T12:44:48.507Z,55.02
2022-08-10T12:47:18.291Z,54.43
2022-08-10T12:50:29.560Z,55.19
2022-08-10T12:53:06.378Z,55.01
2022-08-10T12:55:35.020Z,54.86
2022-08-10T12:58:10.765Z,55.18
2022-08-10T13:01:15.227Z,55.31
2022-08-10T13:04:23.324Z,55.87
2022-08-10T13:06:34.420Z,55.51
2022-08-10T13:09:10.723Z,55.74
2022-08-10T13:12:37.275Z,55.41
2022-08-10T13:15:44.592Z,55.59
2022-08-10T13:17:58.243Z,55.61
2022-08-10T13:20:30.303Z,56.33
2022-08-10T13:23:01.262Z,55.97
2022-08-10T13:25:40.902Z,55.97
2022-08-10T13:28:36.018Z,56.42
2022-08-10T13:31:04.970Z,56.72
2022-08-10T13:34:41.415Z,56.24
2022-08-10T13:36:26.516Z,56.39
2022-08-10T13:38:56.998Z,56.37
2022-08-10T13:41:35.845Z,56.42
2022-08-10T13:44:02.853Z,56.50
2022-08-10T13:46:31.561Z,56.45
2022-08-10T13:51:54.400Z,56.66
2022-08-10T13:54:21.012Z,56.72
2022-08-10T13:56:49.846Z,56.95
2022-08-10T13:59:18.160Z,56.97
2022-08-10T14:01:52.562Z,56.74
2022-08-10T14:04:20.220Z,56.54
2022-08-10T14:06:57.056Z,56.83
2022-08-10T14:09:34.395Z,56.92
2022-08-10T14:12:01.957Z,56.93
2022-08-10T14:14:32.927Z,57.16
2022-08-10T14:17:01.229Z,56.77
2022-08-10T14:19:32.978Z,56.60
2022-08-10T14:22:00.259Z,56.87
2022-08-10T14:24:29.666Z,56.99
2022-08-10T14:27:07.334Z,56.74
2022-08-10T14:29:43.165Z,57.12
2022-08-10T14:32:12.153Z,57.11
2022-08-10T14:36:15.578Z,56.85
2022-08-10T14:37:43.797Z,56.54
2022-08-10T14:40:15.064Z,56.57
2022-08-10T14:43:09.472Z,56.68
2022-08-10T14:45:39.788Z,56.17
2022-08-10T14:48:12.069Z,55.89
2022-08-10T14:50:55.325Z,55.72
2022-08-10T14:53:26.592Z,55.59
2022-08-10T14:56:02.137Z,56.03
2022-08-10T14:58:38.420Z,55.49
2022-08-10T15:01:08.235Z,56.02
2022-08-10T15:04:00.659Z,55.94
2022-08-10T15:06:38.319Z,56.12
2022-08-10T15:09:19.161Z,56.15
2022-08-10T15:12:13.389Z,55.97
2022-08-10T15:14:43.179Z,56.23
2022-08-10T15:17:14.052Z,55.77
2022-08-10T15:20:02.097Z,55.88
2022-08-10T15:22:39.460Z,56.36
2022-08-10T15:25:18.270Z,56.02
2022-08-10T15:27:55.078Z,55.42
2022-08-10T15:30:30.690Z,54.84
2022-08-10T15:33:21.237Z,54.50
2022-08-10T15:36:27.135Z,54.41
2022-08-10T15:39:03.132Z,54.91
2022-08-10T15:41:58.714Z,55.06
2022-08-10T15:44:43.266Z,54.52
2022-08-10T15:47:20.439Z,54.76
2022-08-10T15:50:13.302Z,55.24
2022-08-10T15:53:00.505Z,55.22
2022-08-10T15:55:42.550Z,55.30
2022-08-10T15:58:20.047Z,55.70
2022-08-10T16:02:03.588Z,55.93
2022-08-10T16:04:18.127Z,55.89
2022-08-10T16:06:50.121Z,55.99
2022-08-10T16:10:24.516Z,52.40
2022-08-10T16:12:34.141Z,53.70
2022-08-10T16:15:07.941Z,50.98
2022-08-10T16:17:55.069Z,48.49
2022-08-10T16:20:32.602Z,47.56
2022-08-10T16:23:06.542Z,47.39
2022-08-10T16:25:48.156Z,47.25
2022-08-10T16:28:23.698Z,43.91
2022-08-10T16:30:55.831Z,42.94
2022-08-10T16:33:28.079Z,42.21
2022-08-10T16:36:17.777Z,46.66
2022-08-10T16:38:48.571Z,43.76
2022-08-10T16:42:02.126Z,47.44
2022-08-10T16:44:06.536Z,46.18
2022-08-10T16:46:34.552Z,47.43
2022-08-10T16:49:02.625Z,47.00
2022-08-10T16:51:31.128Z,47.91
2022-08-10T16:54:01.138Z,44.31
2022-08-10T16:56:33.032Z,46.25
2022-08-10T16:59:03.044Z,46.67
2022-08-10T17:01:36.990Z,46.67
2022-08-10T17:04:10.199Z,47.25
2022-08-10T17:06:59.370Z,47.33
2022-08-10T17:09:35.342Z,48.60
2022-08-10T17:12:11.644Z,47.20
2022-08-10T17:14:41.865Z,48.42
2022-08-10T17:17:14.401Z,48.08
2022-08-10T17:19:43.782Z,47.91
2022-08-10T17:22:20.534Z,47.93
2022-08-10T17:24:56.680Z,47.82
2022-08-10T17:28:04.090Z,48.45
2022-08-10T17:30:33.695Z,48.38
2022-08-10T17:33:13.193Z,48.58
2022-08-10T17:35:42.653Z,49.21
2022-08-10T17:38:18.097Z,48.75
2022-08-10T17:40:54.878Z,49.26
2022-08-10T17:43:46.368Z,49.62
2022-08-10T17:46:15.810Z,49.98
2022-08-10T17:48:44.699Z,50.03
2022-08-10T17:51:15.518Z,50.00
2022-08-10T17:53:46.864Z,50.65
2022-08-10T17:56:16.067Z,50.82
2022-08-10T17:58:59.449Z,51.16
2022-08-10T18:01:40.479Z,51.99
2022-08-10T18:04:19.552Z,51.86
2022-08-10T18:06:54.871Z,52.15
2022-08-10T18:09:42.496Z,52.26
2022-08-10T18:12:18.411Z,52.51
2022-08-10T18:14:48.603Z,52.53
2022-08-10T18:17:21.003Z,52.42
2022-08-10T18:19:58.755Z,52.66
2022-08-10T18:22:27.119Z,53.12
2022-08-10T18:24:58.038Z,52.81
2022-08-10T18:28:01.716Z,53.40
2022-08-10T18:30:14.931Z,53.30
2022-08-10T18:32:48.346Z,53.28
2022-08-10T18:35:17.366Z,52.98
2022-08-10T18:37:49.600Z,53.29
2022-08-10T18:40:17.937Z,53.14
2022-08-10T18:42:47.255Z,53.27
2022-08-10T18:45:21.192Z,53.13
2022-08-10T18:47:59.467Z,52.95
2022-08-10T18:50:31.886Z,52.89
2022-08-10T18:53:04.896Z,52.93
2022-08-10T18:55:39.759Z,52.52
2022-08-10T18:58:46.844Z,52.62
2022-08-10T19:01:17.944Z,52.32
2022-08-10T19:04:18.542Z,51.84
2022-08-10T19:07:15.791Z,52.48
2022-08-10T19:09:56.815Z,51.65
2022-08-10T19:12:30.724Z,51.66
2022-08-10T19:15:11.156Z,51.49
2022-08-10T19:18:03.688Z,50.58
2022-08-10T19:20:36.774Z,50.04
2022-08-10T19:23:06.044Z,50.12
2022-08-10T19:26:36.496Z,50.06
2022-08-10T19:29:09.178Z,50.45
2022-08-10T19:31:54.441Z,50.94
2022-08-10T19:34:42.650Z,50.39
2022-08-10T19:37:40.415Z,50.91
2022-08-10T19:40:18.233Z,51.21
2022-08-10T19:43:09.161Z,52.00
2022-08-10T19:46:00.845Z,51.91
2022-08-10T19:48:52.614Z,51.82
2022-08-10T19:51:26.823Z,52.27
2022-08-10T19:54:06.440Z,52.30
2022-08-10T19:56:42.090Z,52.75
2022-08-10T20:00:16.088Z,52.75
2022-08-10T20:02:25.974Z,53.15
2022-08-10T20:05:16.616Z,53.23
2022-08-10T20:08:09.591Z,53.07
2022-08-10T20:10:56.719Z,52.92
2022-08-10T20:13:34.470Z,52.96
2022-08-10T20:16:07.614Z,53.47
2022-08-10T20:18:44.124Z,53.33
2022-08-10T20:21:14.996Z,53.43
2022-08-10T20:23:53.889Z,53.67
2022-08-10T20:26:29.762Z,53.62
2022-08-10T20:29:16.504Z,53.39
2022-08-10T20:32:24.140Z,53.36
2022-08-10T20:35:01.242Z,53.60
2022-08-10T20:37:46.952Z,53.61
2022-08-10T20:40:35.784Z,53.76
2022-08-10T20:43:13.567Z,54.14
2022-08-10T20:46:07.055Z,53.79
2022-08-10T20:48:42.807Z,53.64
2022-08-10T20:51:15.649Z,53.96
2022-08-10T20:53:50.448Z,53.92
2022-08-10T20:56:22.339Z,53.70
2022-08-10T20:59:07.086Z,54.13
2022-08-10T21:02:17.710Z,54.10
2022-08-10T21:05:32.334Z,53.93
2022-08-10T21:08:36.180Z,54.19
2022-08-10T21:11:29.783Z,54.51
2022-08-10T21:14:12.151Z,54.50
2022-08-10T21:16:57.003Z,54.35
2022-08-10T21:19:53.770Z,54.76
2022-08-10T21:22:44.975Z,54.55
2022-08-10T21:25:19.779Z,54.10
2022-08-10T21:27:58.908Z,54.27
2022-08-10T21:30:37.717Z,54.50
2022-08-10T21:33:15.209Z,54.44
2022-08-10T21:35:49.332Z,54.31
2022-08-10T21:38:31.513Z,54.32
2022-08-10T21:41:57.268Z,54.29
2022-08-10T21:45:43.485Z,54.14
2022-08-10T21:48:57.225Z,54.44
2022-08-10T21:52:01.847Z,54.39
2022-08-10T21:55:16.970Z,54.71
2022-08-10T21:58:36.802Z,54.83
2022-08-10T22:04:30.009Z,54.65
2022-08-10T22:07:20.179Z,54.91
2022-08-10T22:10:09.510Z,55.09
2022-08-10T22:13:02.623Z,55.08
2022-08-10T22:16:10.668Z,55.16
2022-08-10T22:19:02.889Z,55.21
2022-08-10T22:22:27.411Z,55.13
2022-08-10T22:25:24.689Z,55.47
2022-08-10T22:28:12.465Z,55.18
2022-08-10T22:31:31.617Z,55.45
2022-08-10T22:34:35.146Z,55.66
2022-08-10T22:37:46.013Z,55.55
2022-08-10T22:40:42.475Z,55.74
2022-08-10T22:43:37.985Z,55.65
2022-08-10T22:46:32.268Z,55.53
2022-08-10T22:49:02.163Z,55.79
2022-08-10T22:51:34.867Z,56.05
2022-08-10T22:54:48.317Z,55.89
2022-08-10T22:57:35.771Z,56.23
2022-08-10T23:00:16.229Z,56.36
2022-08-10T23:03:12.371Z,56.28
2022-08-10T23:05:48.510Z,56.17
2022-08-10T23:08:30.321Z,56.20
2022-08-10T23:11:03.822Z,56.25
2022-08-10T23:13:36.779Z,56.38
2022-08-10T23:16:44.743Z,56.75
2022-08-10T23:19:20.958Z,56.44
2022-08-10T23:22:04.642Z,56.80
2022-08-10T23:24:49.081Z,56.67
2022-08-10T23:27:39.137Z,56.55
2022-08-10T23:30:10.114Z,56.65
2022-08-10T23:32:44.089Z,56.44
2022-08-10T23:36:30.535Z,56.51
2022-08-10T23:38:09.101Z,56.62
2022-08-10T23:40:37.102Z,56.51
2022-08-10T23:43:05.834Z,56.49
2022-08-10T23:45:53.105Z,56.18
2022-08-10T23:48:23.745Z,56.45
2022-08-10T23:50:58.463Z,56.32
2022-08-10T23:53:33.647Z,56.56
2022-08-10T23:56:07.027Z,56.52
2022-08-10T23:59:00.517Z,56.29
